Time;durP1;ratioP1;P1;durP2;ratioP2;P2;SDS_P1;SDS_P2;PMS_P1;PMS_P2;Temp;Humidity;BMP_temperature;BMP_pressure;BME280_temperature;BME280_humidity;BME280_pressure;Samples;Min_cycle;Max_cycle;Signal;HPM_P1;HPM_P2
2023/10/13 00:01:34;;;;;;;14.73;10.57;;;15.60;99.90;;;;;;5016926;28;20174;-82
2023/10/13 00:04:05;;;;;;;12.07;10.00;;;15.60;99.90;;;;;;5017000;28;20657;-84
2023/10/13 00:06:31;;;;;;;14.47;9.83;;;15.60;99.90;;;;;;5035304;28;20174;-82
2023/10/13 00:08:56;;;;;;;12.80;10.50;;;15.60;99.90;;;;;;5017424;28;20202;-82
2023/10/13 00:11:22;;;;;;;16.70;9.83;;;15.60;99.90;;;;;;5016561;28;20598;-84
2023/10/13 00:13:50;;;;;;;16.67;10.13;;;15.60;99.90;;;;;;5016514;28;20170;-82
2023/10/13 00:16:28;;;;;;;15.17;10.67;;;15.60;99.90;;;;;;5016976;28;20734;-82
2023/10/13 00:18:57;;;;;;;12.67;9.53;;;15.70;99.90;;;;;;5016841;28;20201;-82
2023/10/13 00:21:32;;;;;;;15.43;9.73;;;15.70;99.90;;;;;;5034046;28;20167;-82
2023/10/13 00:24:01;;;;;;;12.77;9.57;;;15.70;99.90;;;;;;5016882;28;20181;-82
2023/10/13 00:26:29;;;;;;;14.93;9.73;;;15.70;99.90;;;;;;5016475;28;20177;-82
2023/10/13 00:29:08;;;;;;;14.60;9.50;;;15.70;99.90;;;;;;5034292;28;20202;-82
2023/10/13 00:31:42;;;;;;;12.23;9.20;;;15.70;99.90;;;;;;5034308;28;20190;-82
2023/10/13 00:34:11;;;;;;;12.77;8.97;;;15.70;99.90;;;;;;5034227;28;20588;-82
2023/10/13 00:36:48;;;;;;;11.77;9.00;;;15.70;99.90;;;;;;5016745;28;20233;-82
2023/10/13 00:39:15;;;;;;;14.87;9.30;;;15.70;99.90;;;;;;5016291;28;20229;-83
2023/10/13 00:41:57;;;;;;;15.07;8.97;;;15.80;99.90;;;;;;5016264;28;20170;-83
2023/10/13 00:44:37;;;;;;;12.67;9.53;;;15.80;99.90;;;;;;5016352;28;20175;-82
2023/10/13 00:47:07;;;;;;;11.17;9.07;;;15.70;99.90;;;;;;5016444;28;20169;-82
2023/10/13 00:49:36;;;;;;;13.90;9.17;;;15.80;99.90;;;;;;5016124;28;20206;-82
2023/10/13 00:52:02;;;;;;;13.87;8.67;;;15.70;99.90;;;;;;5015754;28;20178;-83
2023/10/13 00:54:27;;;;;;;11.87;8.40;;;15.80;99.90;;;;;;5016301;28;20191;-83
2023/10/13 00:57:07;;;;;;;12.33;7.87;;;15.70;99.90;;;;;;5015886;28;20182;-82
2023/10/13 00:59:36;;;;;;;13.87;8.10;;;15.80;99.90;;;;;;5016769;28;20789;-82
2023/10/13 01:02:33;;;;;;;14.43;8.60;;;15.80;99.90;;;;;;5033277;28;20724;-83
2023/10/13 01:04:48;;;;;;;10.17;7.80;;;15.80;99.90;;;;;;5033609;28;20185;-82
2023/10/13 01:07:15;;;;;;;11.67;7.97;;;15.80;99.90;;;;;;5016245;28;20177;-82
2023/10/13 01:09:42;;;;;;;13.17;7.80;;;15.80;99.90;;;;;;5016019;28;20218;-82
2023/10/13 01:12:08;;;;;;;13.60;7.80;;;15.80;99.90;;;;;;5033374;28;20178;-84
2023/10/13 01:14:35;;;;;;;12.27;8.00;;;15.70;99.90;;;;;;5033735;28;20167;-83
2023/10/13 01:17:01;;;;;;;9.83;7.03;;;15.70;99.90;;;;;;5033485;28;20194;-82
2023/10/13 01:19:27;;;;;;;13.27;7.97;;;15.70;99.90;;;;;;5015675;28;20221;-82
2023/10/13 01:22:04;;;;;;;11.43;7.73;;;15.70;99.90;;;;;;5033048;28;20174;-82
2023/10/13 01:24:37;;;;;;;12.10;8.30;;;15.80;99.90;;;;;;5015331;28;20170;-82
2023/10/13 01:27:20;;;;;;;9.37;7.20;;;15.70;99.90;;;;;;5015748;28;20170;-83
2023/10/13 01:29:50;;;;;;;11.27;7.20;;;15.70;99.90;;;;;;5033500;28;20212;-82
2023/10/13 01:32:18;;;;;;;11.90;7.47;;;15.80;99.90;;;;;;5033090;28;20171;-82
2023/10/13 01:34:46;;;;;;;11.60;7.73;;;15.80;99.90;;;;;;5033248;28;20261;-82
2023/10/13 01:37:11;;;;;;;9.80;6.90;;;15.80;99.90;;;;;;5015589;28;20655;-82
2023/10/13 01:39:37;;;;;;;11.37;7.20;;;15.80;99.90;;;;;;5015840;28;20284;-83
2023/10/13 01:42:03;;;;;;;12.50;7.10;;;15.80;99.90;;;;;;5015120;28;20166;-82
2023/10/13 01:44:30;;;;;;;10.93;7.53;;;15.80;99.90;;;;;;5015485;28;20175;-83
2023/10/13 01:46:59;;;;;;;11.03;7.00;;;15.80;99.90;;;;;;5033152;28;20167;-82
2023/10/13 01:49:25;;;;;;;9.80;7.43;;;15.70;99.90;;;;;;5032985;28;20194;-83
2023/10/13 01:51:51;;;;;;;11.33;7.23;;;15.70;99.90;;;;;;5032666;28;20178;-82
2023/10/13 01:54:17;;;;;;;10.30;6.80;;;15.80;99.90;;;;;;5015392;28;20174;-84
2023/10/13 01:56:43;;;;;;;8.97;6.90;;;15.70;99.90;;;;;;5015648;28;20170;-83
2023/10/13 01:59:12;;;;;;;10.53;6.60;;;15.70;99.90;;;;;;5033240;28;20221;-82
2023/10/13 02:01:39;;;;;;;8.30;6.23;;;15.80;99.90;;;;;;5015113;28;20245;-82
2023/10/13 02:04:06;;;;;;;9.23;7.07;;;15.80;99.90;;;;;;5032989;28;20181;-85
2023/10/13 02:06:33;;;;;;;8.90;6.30;;;15.80;99.90;;;;;;5033026;28;20178;-83
2023/10/13 02:09:05;;;;;;;9.37;6.57;;;15.80;99.90;;;;;;5032861;28;20198;-81
2023/10/13 02:11:31;;;;;;;9.77;6.47;;;15.80;99.90;;;;;;5014655;28;20222;-82
2023/10/13 02:13:57;;;;;;;9.13;6.13;;;15.80;99.90;;;;;;5015230;28;20598;-82
2023/10/13 02:16:25;;;;;;;9.27;6.30;;;15.80;99.90;;;;;;5015349;28;20174;-82
2023/10/13 02:18:53;;;;;;;8.17;6.53;;;15.80;99.90;;;;;;5032546;28;20694;-82
2023/10/13 02:21:19;;;;;;;8.63;6.27;;;15.80;99.90;;;;;;5032540;28;20650;-82
2023/10/13 02:23:59;;;;;;;10.13;6.57;;;15.80;99.90;;;;;;5033117;28;20178;-82
2023/10/13 02:26:31;;;;;;;10.17;6.13;;;15.80;99.90;;;;;;5014868;28;20166;-82
2023/10/13 02:29:07;;;;;;;8.97;6.13;;;15.80;99.90;;;;;;5033040;28;20191;-82
2023/10/13 02:31:37;;;;;;;9.37;6.20;;;15.80;99.90;;;;;;5014726;28;20170;-82
2023/10/13 02:34:12;;;;;;;9.70;5.87;;;15.80;99.90;;;;;;5015019;28;20175;-82
2023/10/13 02:36:51;;;;;;;8.30;6.27;;;15.90;99.90;;;;;;5035830;28;20197;-82
2023/10/13 02:39:26;;;;;;;8.40;6.00;;;15.90;99.90;;;;;;5036659;28;20206;-82
2023/10/13 02:41:51;;;;;;;11.70;6.07;;;15.90;99.90;;;;;;5035901;28;20179;-82
2023/10/13 02:44:27;;;;;;;10.70;6.23;;;15.90;99.90;;;;;;5036472;28;20174;-82
2023/10/13 02:46:56;;;;;;;9.73;5.90;;;15.90;99.90;;;;;;5036138;28;20173;-82
2023/10/13 02:49:25;;;;;;;10.97;6.13;;;15.90;99.90;;;;;;5018496;28;20226;-82
2023/10/13 02:51:52;;;;;;;10.70;5.73;;;15.90;99.90;;;;;;5018035;28;20174;-83
2023/10/13 02:54:18;;;;;;;7.87;6.27;;;15.90;99.90;;;;;;5035971;28;20201;-82
2023/10/13 02:56:49;;;;;;;9.83;5.97;;;15.80;99.90;;;;;;5018649;28;20182;-82
2023/10/13 02:59:15;;;;;;;7.40;5.53;;;15.90;99.90;;;;;;5018395;28;20214;-83
2023/10/13 03:01:45;;;;;;;8.00;5.67;;;15.90;99.90;;;;;;5017977;28;20173;-83
2023/10/13 03:04:12;;;;;;;8.03;5.73;;;15.80;99.90;;;;;;5018317;28;20190;-83
2023/10/13 03:06:40;;;;;;;10.83;6.33;;;15.90;99.90;;;;;;5036361;28;20174;-82
2023/10/13 03:09:14;;;;;;;10.03;6.03;;;15.90;99.90;;;;;;5035925;28;20201;-82
2023/10/13 03:11:50;;;;;;;7.17;5.67;;;15.80;99.90;;;;;;5035716;28;20162;-82
2023/10/13 03:16:53;;;;;;;9.40;6.70;;;15.80;99.90;;;;;;5036254;28;20673;-83
2023/10/13 03:19:22;;;;;;;10.13;6.20;;;15.80;99.90;;;;;;5036109;28;20210;-83
2023/10/13 03:21:57;;;;;;;9.27;6.03;;;15.80;99.90;;;;;;5035035;28;20167;-83
2023/10/13 03:24:33;;;;;;;11.23;6.10;;;15.80;99.90;;;;;;5036011;28;20258;-82
2023/10/13 03:27:07;;;;;;;8.97;6.20;;;15.90;99.90;;;;;;5035800;28;20639;-83
2023/10/13 03:29:39;;;;;;;9.40;5.87;;;15.90;99.90;;;;;;5035685;28;20197;-82
2023/10/13 03:32:11;;;;;;;11.30;6.23;;;15.90;99.90;;;;;;5017336;28;20720;-82
2023/10/13 03:34:41;;;;;;;7.30;5.90;;;15.90;99.90;;;;;;5018104;28;20274;-82
2023/10/13 03:39:51;;;;;;;13.67;6.47;;;15.90;99.90;;;;;;5035640;28;20205;-83
2023/10/13 03:42:21;;;;;;;8.50;5.80;;;15.90;99.90;;;;;;5017462;28;20167;-80
2023/10/13 03:44:47;;;;;;;8.60;6.07;;;16.00;99.90;;;;;;5017479;28;20177;-82
2023/10/13 03:47:26;;;;;;;7.37;5.83;;;16.00;99.90;;;;;;5017146;28;20178;-82
2023/10/13 03:50:14;;;;;;;10.53;6.40;;;16.00;99.90;;;;;;5035579;28;20180;-82
2023/10/13 03:52:39;;;;;;;7.73;5.97;;;16.00;99.90;;;;;;5034597;28;20182;-82
2023/10/13 03:55:05;;;;;;;10.50;6.10;;;16.00;99.90;;;;;;5035159;28;20177;-82
2023/10/13 03:57:37;;;;;;;7.87;6.03;;;16.00;99.90;;;;;;5034826;28;20640;-82
2023/10/13 04:00:08;;;;;;;7.87;6.03;;;16.10;99.90;;;;;;5035328;28;20289;-84
2023/10/13 04:02:36;;;;;;;11.27;6.27;;;16.10;99.90;;;;;;5016625;28;20182;-82
2023/10/13 04:05:09;;;;;;;10.40;6.53;;;16.10;99.90;;;;;;5034895;28;20202;-82
2023/10/13 04:08:17;;;;;;;10.80;5.93;;;16.20;99.90;;;;;;5034786;28;20706;-82
2023/10/13 04:14:21;;;;;;;8.70;5.87;;;16.20;99.90;;;;;;5034673;28;20177;-84
2023/10/13 04:32:15;;;;;;;8.33;5.27;;;16.30;99.90;;;;;;5034433;28;20177;-82
2023/10/13 04:34:45;;;;;;;8.00;5.37;;;16.30;99.90;;;;;;5017006;28;20175;-82
2023/10/13 04:38:19;;;;;;;10.07;5.63;;;16.40;99.90;;;;;;5016780;28;20253;-82
2023/10/13 04:40:10;;;;;;;9.17;5.23;;;16.40;99.90;;;;;;5029348;28;20760;-82
2023/10/13 04:42:56;;;;;;;11.50;5.17;;;16.50;99.90;;;;;;5015848;28;20184;-82
2023/10/13 04:50:46;;;;;;;10.47;5.50;;;16.50;99.90;;;;;;5033953;28;20169;-82
2023/10/13 04:53:59;;;;;;;8.60;5.57;;;16.50;99.90;;;;;;5015457;28;20271;-82
2023/10/13 04:59:35;;;;;;;8.23;5.40;;;16.50;99.90;;;;;;5032909;28;20255;-78
2023/10/13 06:29:38;;;;;;;11.67;4.73;;;16.90;99.90;;;;;;5033364;28;20255;-84
2023/10/13 06:32:10;;;;;;;9.50;5.10;;;16.90;99.90;;;;;;5032783;28;20604;-83
2023/10/13 06:34:44;;;;;;;7.37;4.70;;;16.90;99.90;;;;;;5033086;28;20198;-84
2023/10/13 06:37:22;;;;;;;9.50;4.90;;;16.80;99.90;;;;;;5015283;28;20271;-83
2023/10/13 06:39:56;;;;;;;8.83;4.93;;;16.80;99.90;;;;;;5014869;28;20205;-84
2023/10/13 06:42:26;;;;;;;7.83;5.33;;;16.90;99.90;;;;;;5032471;28;20250;-84
2023/10/13 06:44:55;;;;;;;7.37;4.57;;;16.90;99.90;;;;;;5015191;28;20178;-83
2023/10/13 06:47:24;;;;;;;9.40;4.93;;;16.90;99.90;;;;;;5032848;28;20186;-85
2023/10/13 06:49:54;;;;;;;6.63;4.50;;;17.00;99.90;;;;;;5032656;28;20174;-83
2023/10/13 06:52:23;;;;;;;10.50;4.90;;;16.90;99.90;;;;;;5032442;28;20186;-84
2023/10/13 06:54:55;;;;;;;10.53;4.70;;;17.00;99.90;;;;;;5014996;28;20182;-83
2023/10/13 06:57:21;;;;;;;7.83;4.47;;;17.00;99.90;;;;;;5032747;28;20174;-84
2023/10/13 06:59:47;;;;;;;7.87;5.10;;;17.00;99.90;;;;;;5015288;28;20263;-83
2023/10/13 07:02:22;;;;;;;8.10;5.10;;;17.10;99.90;;;;;;5043817;28;20186;-82
2023/10/13 07:04:48;;;;;;;8.27;4.90;;;17.10;99.90;;;;;;5029427;28;20182;-82
2023/10/13 07:07:15;;;;;;;9.67;4.43;;;17.10;99.90;;;;;;5030425;28;20269;-82
2023/10/13 07:09:55;;;;;;;9.67;5.20;;;17.10;99.90;;;;;;5032990;28;20178;-83
2023/10/13 07:12:26;;;;;;;9.00;4.50;;;17.10;99.90;;;;;;5034575;28;20190;-82
2023/10/13 07:14:53;;;;;;;6.23;3.90;;;17.00;99.90;;;;;;5032563;28;20171;-84
2023/10/13 07:17:25;;;;;;;7.80;4.97;;;17.10;99.90;;;;;;5032559;28;20182;-84
2023/10/13 07:20:14;;;;;;;9.50;4.83;;;17.10;99.90;;;;;;5032719;28;20674;-84
2023/10/13 07:22:54;;;;;;;11.30;4.60;;;17.10;99.90;;;;;;5015277;28;20674;-85
2023/10/13 07:25:24;;;;;;;7.10;4.70;;;17.10;99.90;;;;;;5018776;28;20181;-85
2023/10/13 07:27:49;;;;;;;6.50;4.90;;;17.10;99.90;;;;;;5011280;28;20199;-85
2023/10/13 07:30:19;;;;;;;8.77;4.20;;;17.10;99.90;;;;;;5032678;28;20190;-84
2023/10/13 07:32:46;;;;;;;7.60;4.40;;;17.20;99.90;;;;;;5017171;28;20228;-84
2023/10/13 07:35:12;;;;;;;7.97;4.60;;;17.20;99.90;;;;;;5033333;28;20182;-84
2023/10/13 07:37:41;;;;;;;9.70;4.30;;;17.30;99.90;;;;;;5012598;28;20256;-84
2023/10/13 07:43:03;;;;;;;7.00;4.30;;;17.50;99.90;;;;;;5035189;28;20726;-84
2023/10/13 07:45:38;;;;;;;9.67;4.57;;;17.60;99.90;;;;;;5035415;28;20555;-85
2023/10/13 07:48:20;;;;;;;7.57;4.37;;;17.60;99.90;;;;;;5009590;28;20193;-84
2023/10/13 07:50:48;;;;;;;8.20;4.60;;;17.60;99.90;;;;;;5031824;28;20217;-84
2023/10/13 07:53:22;;;;;;;6.37;4.40;;;17.60;99.90;;;;;;5035468;28;20194;-84
2023/10/13 07:56:02;;;;;;;6.87;4.73;;;17.50;99.90;;;;;;5027776;28;20673;-84
2023/10/13 07:58:28;;;;;;;6.80;4.03;;;17.50;99.90;;;;;;5027370;28;20220;-82
2023/10/13 08:01:06;;;;;;;9.33;4.33;;;17.50;99.90;;;;;;5011338;28;20187;-85
2023/10/13 08:03:45;;;;;;;8.47;5.07;;;17.50;99.90;;;;;;5023619;28;20175;-84
2023/10/13 08:08:39;;;;;;;10.00;4.37;;;17.60;99.90;;;;;;5035612;28;20197;-82
2023/10/13 08:11:24;;;;;;;9.07;4.30;;;17.60;99.90;;;;;;5032269;28;20712;-82
2023/10/13 08:13:54;;;;;;;7.27;4.17;;;17.80;99.90;;;;;;5042134;28;20178;-83
2023/10/13 08:16:45;;;;;;;8.10;4.27;;;17.90;99.90;;;;;;5041470;28;20185;-83
2023/10/13 08:19:28;;;;;;;6.93;4.07;;;18.00;99.90;;;;;;5017239;28;20206;-82
2023/10/13 08:32:36;;;;;;;7.87;3.80;;;18.40;99.90;;;;;;5035387;28;20674;-87
2023/10/13 08:38:05;;;;;;;6.27;4.07;;;18.30;99.90;;;;;;5035452;28;20206;-82
2023/10/13 08:43:11;;;;;;;9.38;3.92;;;18.30;99.90;;;;;;5035647;28;20692;-82
2023/10/13 08:56:14;;;;;;;;;;;;;;;;;;;;;
2023/10/13 09:12:35;;;;;;;11.10;5.05;;;18.80;99.90;;;;;;5033732;28;20184;-82
2023/10/13 09:25:34;;;;;;;9.38;4.18;;;19.10;99.90;;;;;;5014039;28;20634;-82
2023/10/13 09:28:00;;;;;;;6.15;4.03;;;19.20;99.90;;;;;;5022868;28;20229;-82
2023/10/13 09:30:30;;;;;;;6.25;3.70;;;19.30;99.90;;;;;;5015893;28;20182;-83
2023/10/13 09:33:08;;;;;;;7.18;4.00;;;19.40;99.90;;;;;;5033426;28;20178;-80
2023/10/13 09:35:36;;;;;;;8.43;3.70;;;19.60;99.90;;;;;;5016885;28;20174;-82
2023/10/13 09:38:03;;;;;;;5.57;3.83;;;19.90;99.90;;;;;;5016164;28;20202;-80
2023/10/13 09:43:05;;;;;;;7.88;4.45;;;20.10;99.90;;;;;;5017223;28;20374;-82
2023/10/13 09:45:40;;;;;;;9.15;4.05;;;20.00;99.90;;;;;;4999931;28;20167;-83
2023/10/13 09:48:21;;;;;;;9.10;4.00;;;19.90;99.90;;;;;;5032381;28;20256;-79
2023/10/13 09:50:50;;;;;;;10.20;4.40;;;20.00;99.90;;;;;;5016441;28;20166;-83
2023/10/13 09:53:18;;;;;;;8.88;3.78;;;20.10;99.90;;;;;;5024790;28;20658;-83
2023/10/13 09:55:49;;;;;;;8.98;4.30;;;20.00;91.10;;;;;;5035359;28;20194;-83
2023/10/13 09:58:17;;;;;;;6.68;3.72;;;19.80;99.90;;;;;;5015887;28;20256;-82
2023/10/13 10:00:49;;;;;;;7.18;4.03;;;19.80;99.90;;;;;;5015910;28;20202;-83
2023/10/13 10:03:29;;;;;;;9.55;4.28;;;19.80;93.50;;;;;;5033711;28;20174;-83
2023/10/13 10:06:03;;;;;;;9.10;4.13;;;19.80;99.90;;;;;;5025711;28;20261;-83
2023/10/13 10:08:33;;;;;;;6.57;4.20;;;19.90;99.90;;;;;;5021976;28;20221;-82
2023/10/13 10:11:25;;;;;;;11.10;4.68;;;20.10;18.30;;;;;;5029341;28;20553;-82
2023/10/13 10:14:21;;;;;;;6.43;3.92;;;20.10;99.90;;;;;;5020355;28;20170;-83
2023/10/13 10:16:52;;;;;;;6.03;4.13;;;20.20;19.20;;;;;;5033633;28;20185;-83
2023/10/13 10:19:18;;;;;;;10.63;4.10;;;20.40;1.00;;;;;;5033366;28;20663;-82
2023/10/13 10:21:44;;;;;;;7.68;4.03;;;20.40;1.00;;;;;;5015724;28;20197;-82
2023/10/13 10:24:30;;;;;;;5.72;3.97;;;20.50;1.00;;;;;;5040386;28;20178;-83
2023/10/13 10:26:56;;;;;;;9.10;4.20;;;20.50;1.00;;;;;;5035743;28;20178;-83
2023/10/13 10:29:22;;;;;;;8.23;4.38;;;20.50;1.00;;;;;;5012950;28;20546;-83
2023/10/13 10:31:48;;;;;;;9.27;4.20;;;20.60;23.40;;;;;;5009425;28;20194;-83
2023/10/13 10:34:18;;;;;;;7.97;4.18;;;20.90;1.00;;;;;;5024036;28;20209;-83
2023/10/13 10:36:47;;;;;;;7.10;4.55;;;21.10;1.00;;;;;;5027661;28;20178;-83
2023/10/13 10:39:13;;;;;;;8.40;4.75;;;21.20;1.00;;;;;;5023349;28;20698;-83
2023/10/13 10:41:46;;;;;;;;;;;;;;;;;;;;;
2023/10/13 10:44:23;;;;;;;9.30;4.63;;;21.20;1.00;;;;;;5025789;28;20240;-84
2023/10/13 10:46:52;;;;;;;5.72;4.25;;;21.30;1.00;;;;;;5021121;28;20182;-84
2023/10/13 10:49:27;;;;;;;8.05;4.05;;;21.10;1.00;;;;;;5015132;28;20221;-84
2023/10/13 10:52:05;;;;;;;7.68;5.03;;;20.90;1.00;;;;;;5032522;28;20166;-84
2023/10/13 10:54:34;;;;;;;6.93;4.50;;;20.80;1.00;;;;;;5010627;28;20250;-83
2023/10/13 10:57:17;;;;;;;7.70;4.40;;;20.70;1.00;;;;;;5002861;28;20240;-84
2023/10/13 10:59:43;;;;;;;7.53;4.80;;;20.70;20.70;;;;;;5036576;28;20686;-83
2023/10/13 11:02:13;;;;;;;8.02;4.85;;;20.80;1.00;;;;;;5036357;28;20255;-83
2023/10/13 11:04:50;;;;;;;5.55;4.40;;;20.90;1.00;;;;;;5019396;28;20256;-83
2023/10/13 11:07:23;;;;;;;5.88;4.60;;;21.00;1.00;;;;;;5018420;28;20182;-83
2023/10/13 11:09:52;;;;;;;5.53;4.32;;;21.00;1.00;;;;;;5014003;28;20178;-83
2023/10/13 11:12:25;;;;;;;5.95;4.53;;;21.00;99.90;;;;;;5016389;28;20197;-83
2023/10/13 11:15:14;;;;;;;7.30;4.38;;;21.20;1.00;;;;;;5018455;28;20177;-83
2023/10/13 11:17:48;;;;;;;11.40;4.82;;;21.30;1.00;;;;;;5002098;28;20206;-83
2023/10/13 11:20:17;;;;;;;9.85;4.40;;;21.60;1.00;;;;;;5035275;28;20229;-84
2023/10/13 11:22:47;;;;;;;7.00;4.40;;;21.60;99.90;;;;;;5028216;28;20205;-84
2023/10/13 11:25:29;;;;;;;6.32;4.35;;;21.60;1.00;;;;;;5036178;28;20240;-83
2023/10/13 11:27:59;;;;;;;6.72;4.25;;;21.60;1.00;;;;;;5007022;28;20198;-84
2023/10/13 11:30:40;;;;;;;5.18;4.53;;;21.60;99.90;;;;;;5003263;28;20231;-83
2023/10/13 11:33:11;;;;;;;6.80;4.25;;;21.60;28.90;;;;;;5036736;28;20167;-83
2023/10/13 11:38:26;;;;;;;7.22;4.20;;;21.50;1.00;;;;;;5026438;28;20217;-83
2023/10/13 11:46:13;;;;;;;;;;;;;;;;;;;;;
2023/10/13 11:48:43;;;;;;;7.15;3.97;;;21.40;24.90;;;;;;5017525;28;20245;-84
2023/10/13 11:51:26;;;;;;;9.43;4.65;;;21.40;99.90;;;;;;5033584;28;20182;-84
2023/10/13 11:53:52;;;;;;;9.57;5.15;;;21.40;99.90;;;;;;5018802;28;20190;-84
2023/10/13 11:56:20;;;;;;;6.38;4.53;;;21.40;99.90;;;;;;5018975;28;20178;-83
2023/10/13 11:58:47;;;;;;;9.73;4.53;;;21.40;1.00;;;;;;5035448;28;20202;-83
2023/10/13 12:11:50;;;;;;;7.75;4.70;;;21.40;99.90;;;;;;5036152;28;20221;-84
2023/10/13 12:14:21;;;;;;;;;;;;;;;;;;;;;
2023/10/13 12:16:50;;;;;;;6.88;4.22;;;21.40;58.20;;;;;;5036965;28;20208;-84
2023/10/13 12:19:27;;;;;;;7.15;4.43;;;21.40;1.00;;;;;;5018438;28;20209;-84
2023/10/13 12:21:56;;;;;;;5.75;4.03;;;21.40;1.00;;;;;;5018127;28;20170;-83
2023/10/13 12:24:40;;;;;;;8.23;4.50;;;21.40;1.00;;;;;;5017802;28;20258;-84
2023/10/13 12:27:23;;;;;;;6.40;4.50;;;21.40;1.00;;;;;;5035909;28;20165;-84
2023/10/13 12:29:51;;;;;;;8.57;4.22;;;21.40;1.00;;;;;;5017834;28;20182;-84
2023/10/13 12:32:23;;;;;;;6.63;4.30;;;21.50;99.90;;;;;;5035902;28;20182;-85
2023/10/13 12:54:14;;;;;;;7.63;4.28;;;21.90;1.00;;;;;;5035077;28;20174;-84
2023/10/13 12:56:42;;;;;;;5.15;3.83;;;22.00;99.90;;;;;;5017664;28;20170;-84
2023/10/13 12:59:13;;;;;;;7.35;4.53;;;22.00;29.20;;;;;;5104626;22;20225;-82
2023/10/13 13:01:42;;;;;;;5.68;4.10;;;22.00;1.00;;;;;;5051662;28;20181;-81
2023/10/13 13:04:36;;;;;;;5.57;4.40;;;21.90;99.90;;;;;;5053351;28;20166;-82
2023/10/13 13:06:59;;;;;;;6.07;4.20;;;22.00;1.00;;;;;;5052941;28;20177;-83
2023/10/13 13:09:27;;;;;;;7.90;4.20;;;22.00;1.00;;;;;;5052181;28;20190;-82
2023/10/13 13:11:57;;;;;;;7.32;4.30;;;22.00;1.00;;;;;;5051594;28;20181;-81
2023/10/13 13:14:28;;;;;;;6.25;4.28;;;21.90;1.00;;;;;;5053294;28;20226;-82
2023/10/13 13:16:55;;;;;;;5.40;4.05;;;22.00;1.00;;;;;;5052337;28;20204;-82
2023/10/13 13:19:25;;;;;;;6.63;4.45;;;22.00;1.00;;;;;;5052755;28;20215;-81
2023/10/13 13:21:51;;;;;;;4.22;3.75;;;22.00;1.00;;;;;;5052171;28;20212;-81
2023/10/13 13:24:16;;;;;;;7.78;4.20;;;22.10;1.00;;;;;;5053159;28;20251;-81
2023/10/13 13:26:42;;;;;;;5.97;4.40;;;22.30;1.00;;;;;;5051981;28;20177;-82
2023/10/13 13:29:10;;;;;;;5.90;4.30;;;22.30;71.30;;;;;;5045303;28;20240;-84
2023/10/13 13:31:41;;;;;;;6.82;4.32;;;22.30;99.90;;;;;;5051243;28;20178;-81
2023/10/13 13:34:12;;;;;;;4.70;3.92;;;22.40;1.00;;;;;;5052109;28;20204;-82
2023/10/13 13:36:38;;;;;;;7.10;4.03;;;22.50;1.00;;;;;;5052852;28;20162;-82
2023/10/13 13:39:05;;;;;;;6.03;4.00;;;22.70;1.00;;;;;;5051353;28;20208;-83
2023/10/13 13:41:33;;;;;;;8.88;4.43;;;22.70;99.90;;;;;;5051002;28;20224;-82
2023/10/13 13:44:12;;;;;;;7.32;4.13;;;22.60;99.90;;;;;;5052875;28;20184;-84
2023/10/13 13:46:41;;;;;;;7.70;4.32;;;22.50;1.00;;;;;;5051820;28;20177;-85
2023/10/13 13:49:07;;;;;;;5.50;4.20;;;22.40;1.00;;;;;;5052516;28;20193;-83
2023/10/13 13:51:33;;;;;;;6.80;4.05;;;22.30;1.00;;;;;;5052417;28;20192;-82
2023/10/13 13:53:59;;;;;;;6.18;4.20;;;22.30;1.00;;;;;;5052623;28;20170;-81
2023/10/13 13:56:27;;;;;;;6.07;4.25;;;22.20;1.00;;;;;;5051444;28;20177;-81
2023/10/13 13:58:53;;;;;;;6.60;3.97;;;22.20;99.90;;;;;;5052446;28;20205;-85
2023/10/13 14:01:21;;;;;;;6.07;4.15;;;22.10;99.90;;;;;;5052030;28;20192;-83
2023/10/13 14:03:50;;;;;;;6.45;3.55;;;22.10;1.00;;;;;;5052575;28;20166;-83
2023/10/13 14:06:24;;;;;;;7.88;4.20;;;22.10;1.00;;;;;;5052622;28;20253;-82
2023/10/13 14:08:51;;;;;;;4.90;3.78;;;22.00;99.90;;;;;;5051310;28;20197;-82
2023/10/13 14:12:29;;;;;;;5.38;3.72;;;21.90;13.20;;;;;;5051832;28;20177;-82
2023/10/13 14:16:50;;;;;;;7.57;4.10;;;22.00;99.90;;;;;;5052304;28;20196;-82
2023/10/13 14:19:28;;;;;;;9.02;3.70;;;22.00;1.00;;;;;;5052577;28;20635;-82
2023/10/13 14:21:57;;;;;;;6.78;4.03;;;22.00;1.00;;;;;;5050874;28;20170;-82
2023/10/13 14:24:33;;;;;;;6.82;4.15;;;21.90;1.00;;;;;;5052520;28;20166;-82
2023/10/13 14:27:09;;;;;;;6.57;4.07;;;21.90;1.00;;;;;;5051033;28;20172;-82
2023/10/13 14:29:42;;;;;;;5.97;4.00;;;21.90;1.00;;;;;;5052226;28;20223;-80
2023/10/13 14:32:12;;;;;;;6.25;3.80;;;21.80;1.00;;;;;;5048496;28;20561;-79
2023/10/13 14:34:54;;;;;;;4.95;3.90;;;21.90;1.00;;;;;;5054907;28;20192;-81
2023/10/13 14:37:32;;;;;;;5.47;3.78;;;21.80;1.00;;;;;;5056390;28;20185;-84
2023/10/13 14:39:59;;;;;;;6.63;3.65;;;21.70;99.90;;;;;;5055741;28;20208;-81
2023/10/13 14:42:28;;;;;;;5.88;3.90;;;21.70;1.00;;;;;;5055441;28;20650;-81
2023/10/13 14:44:57;;;;;;;6.20;3.90;;;21.70;99.90;;;;;;5055091;28;20654;-84
2023/10/13 14:47:26;;;;;;;7.95;3.83;;;21.70;1.00;;;;;;5054993;28;20177;-81
2023/10/13 14:49:59;;;;;;;4.93;3.63;;;21.70;1.00;;;;;;5040079;28;20560;-83
2023/10/13 14:52:25;;;;;;;7.63;3.92;;;21.80;1.00;;;;;;5054795;28;20184;-80
2023/10/13 14:54:57;;;;;;;4.60;3.67;;;22.00;99.90;;;;;;5056392;28;20169;-81
2023/10/13 14:57:27;;;;;;;5.70;3.95;;;22.20;1.00;;;;;;5054556;28;20185;-81
2023/10/13 14:59:56;;;;;;;5.65;3.60;;;22.30;99.90;;;;;;5055570;28;20202;-83
2023/10/13 15:02:22;;;;;;;5.10;3.50;;;22.50;99.90;;;;;;5055053;28;20170;-84
2023/10/13 15:04:48;;;;;;;6.00;3.75;;;22.50;1.00;;;;;;5055658;28;20181;-81
2023/10/13 15:07:16;;;;;;;5.13;3.75;;;22.50;99.90;;;;;;5055385;28;20194;-83
2023/10/13 15:09:42;;;;;;;7.82;3.90;;;22.50;1.00;;;;;;5054011;28;20199;-81
2023/10/13 15:12:10;;;;;;;5.55;3.97;;;22.50;99.90;;;;;;5055309;28;20177;-81
2023/10/13 15:14:42;;;;;;;6.53;3.83;;;22.50;1.00;;;;;;5055698;28;20185;-83
2023/10/13 15:17:09;;;;;;;5.25;3.50;;;22.40;1.00;;;;;;5055624;28;20215;-81
2023/10/13 15:19:44;;;;;;;5.60;3.63;;;22.40;1.00;;;;;;5055595;28;20200;-80
2023/10/13 15:22:16;;;;;;;5.70;3.53;;;22.40;1.00;;;;;;5054152;28;20169;-81
2023/10/13 15:24:57;;;;;;;6.20;3.72;;;22.30;1.00;;;;;;5054484;28;20599;-81
2023/10/13 15:27:23;;;;;;;5.22;3.78;;;22.30;99.90;;;;;;5054247;28;20174;-81
2023/10/13 15:29:50;;;;;;;5.20;3.55;;;22.30;1.00;;;;;;5054230;28;20251;-81
2023/10/13 15:35:00;;;;;;;6.38;3.45;;;22.10;1.00;;;;;;5056214;28;20733;-81
2023/10/13 15:37:27;;;;;;;5.45;3.67;;;22.00;1.00;;;;;;5055292;28;20290;-81
2023/10/13 15:39:52;;;;;;;7.53;3.53;;;21.90;1.00;;;;;;5055181;28;20701;-81
2023/10/13 15:42:20;;;;;;;5.22;3.50;;;21.80;1.00;;;;;;5054763;28;20182;-81
2023/10/13 15:44:46;;;;;;;6.13;3.65;;;21.70;1.00;;;;;;5053038;28;20189;-81
2023/10/13 15:47:12;;;;;;;8.07;3.92;;;21.60;1.00;;;;;;5055337;28;20170;-82
2023/10/13 15:49:41;;;;;;;7.75;3.67;;;21.70;1.00;;;;;;5054956;28;20194;-81
2023/10/13 15:52:07;;;;;;;5.00;3.40;;;21.70;1.00;;;;;;5055014;28;20185;-81
2023/10/13 15:54:35;;;;;;;7.63;3.72;;;21.60;1.00;;;;;;5055155;28;20634;-82
2023/10/13 15:57:01;;;;;;;5.97;3.67;;;21.60;1.00;;;;;;5054853;28;20252;-82
2023/10/13 15:59:26;;;;;;;7.15;4.07;;;21.60;1.00;;;;;;5054714;28;20301;-81
2023/10/13 16:01:57;;;;;;;3.97;3.40;;;21.60;1.00;;;;;;5053176;28;20264;-84
2023/10/13 16:04:23;;;;;;;6.65;3.75;;;21.60;1.00;;;;;;5055214;28;20203;-80
2023/10/13 16:06:50;;;;;;;9.45;3.53;;;21.50;1.00;;;;;;5055145;28;20620;-81
2023/10/13 16:09:25;;;;;;;6.00;3.80;;;21.50;99.90;;;;;;5054210;28;20197;-81
2023/10/13 16:11:51;;;;;;;6.75;3.80;;;21.50;99.90;;;;;;5054559;28;20232;-81
2023/10/13 16:14:17;;;;;;;6.40;3.20;;;21.50;99.90;;;;;;5054634;28;20780;-81
2023/10/13 16:16:52;;;;;;;6.05;3.85;;;21.50;99.90;;;;;;5053544;28;20211;-81
2023/10/13 16:19:26;;;;;;;6.03;3.70;;;21.50;99.90;;;;;;5049561;28;20204;-82
2023/10/13 16:21:53;;;;;;;5.50;3.30;;;21.50;82.00;;;;;;5048367;28;20646;-82
2023/10/13 16:24:19;;;;;;;6.85;3.55;;;21.50;21.00;;;;;;5044333;28;20186;-82
2023/10/13 16:26:49;;;;;;;9.77;3.78;;;21.60;66.60;;;;;;5053547;28;20170;-82
2023/10/13 16:29:21;;;;;;;5.95;3.72;;;21.50;1.00;;;;;;5052755;28;20197;-82
2023/10/13 16:31:47;;;;;;;6.47;3.47;;;21.50;1.00;;;;;;5048355;28;20174;-82
2023/10/13 16:34:17;;;;;;;6.45;3.80;;;21.50;1.00;;;;;;5053966;28;20174;-82
2023/10/13 16:36:43;;;;;;;7.15;3.88;;;21.50;66.10;;;;;;5053696;28;20675;-81
2023/10/13 16:39:16;;;;;;;6.55;3.45;;;21.40;1.00;;;;;;5053623;28;20339;-81
2023/10/13 16:41:44;;;;;;;5.45;3.30;;;21.40;1.00;;;;;;5053459;28;20165;-82
2023/10/13 16:44:11;;;;;;;5.32;3.40;;;21.50;1.00;;;;;;5054034;28;20239;-82
2023/10/13 16:46:37;;;;;;;7.00;3.70;;;21.50;1.00;;;;;;5052572;28;20178;-81
2023/10/13 16:49:03;;;;;;;5.93;3.80;;;21.50;1.00;;;;;;5051019;28;20681;-82
2023/10/13 16:51:31;;;;;;;7.80;3.90;;;21.40;1.00;;;;;;5048467;28;20185;-82
2023/10/13 16:53:58;;;;;;;7.97;3.83;;;21.40;1.00;;;;;;5052040;28;20236;-82
2023/10/13 16:56:24;;;;;;;6.10;3.45;;;21.40;1.00;;;;;;5053275;28;20209;-82